sensor_id;sensor_type;location;lat;lon;timestamp;temperature;humidity
2202;DHT22;1107;48.654;9.250;2023-03-20T00:00:30;9.70;99.90
2202;DHT22;1107;48.654;9.250;2023-03-20T00:02:59;9.60;99.90
2202;DHT22;1107;48.654;9.250;2023-03-20T00:05:27;9.60;99.90
2202;DHT22;1107;48.654;9.250;2023-03-20T00:07:55;9.50;1.00
2202;DHT22;1107;48.654;9.250;2023-03-20T00:10:27;9.50;1.00
2202;DHT22;1107;48.654;9.250;2023-03-20T00:12:57;9.50;1.00
2202;DHT22;1107;48.654;9.250;2023-03-20T00:15:30;9.50;1.00
2202;DHT22;1107;48.654;9.250;2023-03-20T00:17:58;9.50;1.00
2202;DHT22;1107;48.654;9.250;2023-03-20T00:20:25;9.50;1.00
2202;DHT22;1107;48.654;9.250;2023-03-20T00:22:52;9.40;1.00
2202;DHT22;1107;48.654;9.250;2023-03-20T00:25:23;9.40;1.00
2202;DHT22;1107;48.654;9.250;2023-03-20T00:27:51;9.50;1.00
2202;DHT22;1107;48.654;9.250;2023-03-20T00:30:22;9.50;1.00
2202;DHT22;1107;48.654;9.250;2023-03-20T00:32:51;9.40;1.00
2202;DHT22;1107;48.654;9.250;2023-03-20T00:35:21;9.40;1.00
2202;DHT22;1107;48.654;9.250;2023-03-20T00:37:48;9.40;1.00
2202;DHT22;1107;48.654;9.250;2023-03-20T00:40:15;9.40;1.00
2202;DHT22;1107;48.654;9.250;2023-03-20T00:42:44;9.40;1.00
2202;DHT22;1107;48.654;9.250;2023-03-20T00:45:15;9.30;1.00
2202;DHT22;1107;48.654;9.250;2023-03-20T00:47:45;9.20;1.00
2202;DHT22;1107;48.654;9.250;2023-03-20T00:50:15;9.10;1.00
2202;DHT22;1107;48.654;9.250;2023-03-20T00:52:43;9.10;1.00
2202;DHT22;1107;48.654;9.250;2023-03-20T00:55:10;9.10;1.00
2202;DHT22;1107;48.654;9.250;2023-03-20T00:57:41;9.10;1.00
2202;DHT22;1107;48.654;9.250;2023-03-20T01:00:20;9.20;1.00
2202;DHT22;1107;48.654;9.250;2023-03-20T01:02:50;9.30;1.00
2202;DHT22;1107;48.654;9.250;2023-03-20T01:05:17;9.30;1.00
2202;DHT22;1107;48.654;9.250;2023-03-20T01:07:44;9.30;1.00
2202;DHT22;1107;48.654;9.250;2023-03-20T01:10:12;9.30;1.00
2202;DHT22;1107;48.654;9.250;2023-03-20T01:12:40;9.40;1.00
2202;DHT22;1107;48.654;9.250;2023-03-20T01:15:16;9.30;1.00
2202;DHT22;1107;48.654;9.250;2023-03-20T01:17:44;9.20;1.00
2202;DHT22;1107;48.654;9.250;2023-03-20T01:20:17;9.10;1.00
2202;DHT22;1107;48.654;9.250;2023-03-20T01:22:45;9.10;1.00
2202;DHT22;1107;48.654;9.250;2023-03-20T01:25:12;9.10;1.00
2202;DHT22;1107;48.654;9.250;2023-03-20T01:27:42;9.00;1.00
2202;DHT22;1107;48.654;9.250;2023-03-20T01:30:17;9.00;1.00
2202;DHT22;1107;48.654;9.250;2023-03-20T01:32:45;9.10;1.00
2202;DHT22;1107;48.654;9.250;2023-03-20T01:35:15;9.10;1.00
2202;DHT22;1107;48.654;9.250;2023-03-20T01:37:44;9.10;1.00
2202;DHT22;1107;48.654;9.250;2023-03-20T01:40:19;9.10;1.00
2202;DHT22;1107;48.654;9.250;2023-03-20T01:42:48;9.10;1.00
2202;DHT22;1107;48.654;9.250;2023-03-20T01:45:18;9.10;1.00
2202;DHT22;1107;48.654;9.250;2023-03-20T01:47:46;9.10;1.00
2202;DHT22;1107;48.654;9.250;2023-03-20T01:50:21;9.10;99.90
2202;DHT22;1107;48.654;9.250;2023-03-20T01:52:50;9.10;1.00
2202;DHT22;1107;48.654;9.250;2023-03-20T01:55:19;9.10;1.00
2202;DHT22;1107;48.654;9.250;2023-03-20T01:57:46;9.10;1.00
2202;DHT22;1107;48.654;9.250;2023-03-20T02:00:15;9.10;99.90
2202;DHT22;1107;48.654;9.250;2023-03-20T02:02:44;9.10;17.60
2202;DHT22;1107;48.654;9.250;2023-03-20T02:05:13;9.10;91.00
2202;DHT22;1107;48.654;9.250;2023-03-20T02:07:45;9.10;99.90
2202;DHT22;1107;48.654;9.250;2023-03-20T02:10:16;9.10;67.90
2202;DHT22;1107;48.654;9.250;2023-03-20T02:12:44;9.10;99.90
2202;DHT22;1107;48.654;9.250;2023-03-20T02:15:14;9.00;1.00
2202;DHT22;1107;48.654;9.250;2023-03-20T02:17:43;9.00;99.90
2202;DHT22;1107;48.654;9.250;2023-03-20T02:20:17;9.00;99.90
2202;DHT22;1107;48.654;9.250;2023-03-20T02:26:06;9.00;99.90
2202;DHT22;1107;48.654;9.250;2023-03-20T02:35:03;9.00;99.90
2202;DHT22;1107;48.654;9.250;2023-03-20T02:37:47;9.00;99.90
2202;DHT22;1107;48.654;9.250;2023-03-20T02:40:25;9.00;99.90
2202;DHT22;1107;48.654;9.250;2023-03-20T02:43:02;9.00;99.90
2202;DHT22;1107;48.654;9.250;2023-03-20T02:45:35;9.00;99.90
2202;DHT22;1107;48.654;9.250;2023-03-20T02:48:10;9.10;99.90
2202;DHT22;1107;48.654;9.250;2023-03-20T02:50:46;9.10;23.40
2202;DHT22;1107;48.654;9.250;2023-03-20T02:53:26;9.10;99.90
2202;DHT22;1107;48.654;9.250;2023-03-20T02:55:59;9.10;99.90
2202;DHT22;1107;48.654;9.250;2023-03-20T02:58:34;9.10;25.50
2202;DHT22;1107;48.654;9.250;2023-03-20T03:01:09;9.10;99.90
2202;DHT22;1107;48.654;9.250;2023-03-20T03:03:40;9.20;99.90
2202;DHT22;1107;48.654;9.250;2023-03-20T03:06:11;9.20;99.90
2202;DHT22;1107;48.654;9.250;2023-03-20T03:08:48;9.10;95.00
2202;DHT22;1107;48.654;9.250;2023-03-20T03:11:17;9.10;99.90
2202;DHT22;1107;48.654;9.250;2023-03-20T03:13:47;9.00;99.90
2202;DHT22;1107;48.654;9.250;2023-03-20T03:16:18;9.00;99.90
2202;DHT22;1107;48.654;9.250;2023-03-20T03:18:48;8.90;99.90
2202;DHT22;1107;48.654;9.250;2023-03-20T03:21:17;8.90;99.90
2202;DHT22;1107;48.654;9.250;2023-03-20T03:23:47;8.90;99.90
2202;DHT22;1107;48.654;9.250;2023-03-20T03:26:20;8.90;1.00
2202;DHT22;1107;48.654;9.250;2023-03-20T03:28:50;8.90;99.90
2202;DHT22;1107;48.654;9.250;2023-03-20T03:31:20;8.90;99.90
2202;DHT22;1107;48.654;9.250;2023-03-20T03:33:50;8.90;1.00
2202;DHT22;1107;48.654;9.250;2023-03-20T03:36:24;8.90;1.00
2202;DHT22;1107;48.654;9.250;2023-03-20T03:38:58;9.00;1.00
2202;DHT22;1107;48.654;9.250;2023-03-20T03:41:31;9.00;1.00
2202;DHT22;1107;48.654;9.250;2023-03-20T03:44:06;9.00;1.00
2202;DHT22;1107;48.654;9.250;2023-03-20T03:46:39;9.00;1.00
2202;DHT22;1107;48.654;9.250;2023-03-20T03:49:09;9.00;1.00
2202;DHT22;1107;48.654;9.250;2023-03-20T03:51:41;8.90;1.00
2202;DHT22;1107;48.654;9.250;2023-03-20T03:54:13;8.90;1.00
2202;DHT22;1107;48.654;9.250;2023-03-20T03:56:44;8.90;1.00
2202;DHT22;1107;48.654;9.250;2023-03-20T03:59:17;8.90;1.00
2202;DHT22;1107;48.654;9.250;2023-03-20T04:01:46;8.90;1.00
2202;DHT22;1107;48.654;9.250;2023-03-20T04:04:15;8.90;1.00
2202;DHT22;1107;48.654;9.250;2023-03-20T04:06:43;8.90;1.00
2202;DHT22;1107;48.654;9.250;2023-03-20T04:09:12;8.90;1.00
2202;DHT22;1107;48.654;9.250;2023-03-20T04:11:38;9.00;1.00
2202;DHT22;1107;48.654;9.250;2023-03-20T04:14:06;8.90;1.00
2202;DHT22;1107;48.654;9.250;2023-03-20T04:16:32;8.90;1.00
2202;DHT22;1107;48.654;9.250;2023-03-20T04:18:59;8.80;1.00
2202;DHT22;1107;48.654;9.250;2023-03-20T04:21:26;8.80;1.00
2202;DHT22;1107;48.654;9.250;2023-03-20T04:23:53;8.80;1.00
2202;DHT22;1107;48.654;9.250;2023-03-20T04:26:22;8.70;1.00
2202;DHT22;1107;48.654;9.250;2023-03-20T04:28:49;8.80;1.00
2202;DHT22;1107;48.654;9.250;2023-03-20T04:31:17;8.80;1.00
2202;DHT22;1107;48.654;9.250;2023-03-20T04:33:44;8.80;1.00
2202;DHT22;1107;48.654;9.250;2023-03-20T04:36:11;8.70;1.00
2202;DHT22;1107;48.654;9.250;2023-03-20T04:38:38;8.70;1.00
2202;DHT22;1107;48.654;9.250;2023-03-20T04:41:06;8.70;1.00
2202;DHT22;1107;48.654;9.250;2023-03-20T04:43:34;8.70;1.00
2202;DHT22;1107;48.654;9.250;2023-03-20T04:46:01;8.80;1.00
2202;DHT22;1107;48.654;9.250;2023-03-20T04:48:28;8.70;1.00
2202;DHT22;1107;48.654;9.250;2023-03-20T04:50:55;8.70;1.00
2202;DHT22;1107;48.654;9.250;2023-03-20T04:53:22;8.70;1.00
2202;DHT22;1107;48.654;9.250;2023-03-20T04:55:49;8.60;1.00
2202;DHT22;1107;48.654;9.250;2023-03-20T04:58:16;8.50;1.00
2202;DHT22;1107;48.654;9.250;2023-03-20T05:00:45;8.40;1.00
2202;DHT22;1107;48.654;9.250;2023-03-20T05:03:12;8.40;1.00
2202;DHT22;1107;48.654;9.250;2023-03-20T05:05:39;8.40;1.00
2202;DHT22;1107;48.654;9.250;2023-03-20T05:08:06;8.40;1.00
2202;DHT22;1107;48.654;9.250;2023-03-20T05:10:33;8.40;1.00
2202;DHT22;1107;48.654;9.250;2023-03-20T05:13:00;8.30;1.00
2202;DHT22;1107;48.654;9.250;2023-03-20T05:15:27;8.30;1.00
2202;DHT22;1107;48.654;9.250;2023-03-20T05:17:55;8.30;1.00
2202;DHT22;1107;48.654;9.250;2023-03-20T05:20:22;8.30;1.00
2202;DHT22;1107;48.654;9.250;2023-03-20T05:22:49;8.40;1.00
2202;DHT22;1107;48.654;9.250;2023-03-20T05:25:17;8.40;1.00
2202;DHT22;1107;48.654;9.250;2023-03-20T05:27:44;8.50;1.00
2202;DHT22;1107;48.654;9.250;2023-03-20T05:30:12;8.50;1.00
2202;DHT22;1107;48.654;9.250;2023-03-20T05:32:40;8.50;1.00
2202;DHT22;1107;48.654;9.250;2023-03-20T05:35:10;8.50;1.00
2202;DHT22;1107;48.654;9.250;2023-03-20T05:37:37;8.60;1.00
2202;DHT22;1107;48.654;9.250;2023-03-20T05:40:05;8.60;1.00
2202;DHT22;1107;48.654;9.250;2023-03-20T05:42:33;8.60;1.00
2202;DHT22;1107;48.654;9.250;2023-03-20T05:44:59;8.70;1.00
2202;DHT22;1107;48.654;9.250;2023-03-20T05:47:26;8.70;1.00
2202;DHT22;1107;48.654;9.250;2023-03-20T05:49:53;8.70;1.00
2202;DHT22;1107;48.654;9.250;2023-03-20T05:52:22;8.80;1.00
2202;DHT22;1107;48.654;9.250;2023-03-20T05:54:49;8.70;1.00
2202;DHT22;1107;48.654;9.250;2023-03-20T05:57:16;8.80;1.00
2202;DHT22;1107;48.654;9.250;2023-03-20T05:59:43;8.70;1.00
2202;DHT22;1107;48.654;9.250;2023-03-20T06:02:11;8.70;1.00
2202;DHT22;1107;48.654;9.250;2023-03-20T06:04:38;8.70;1.00
2202;DHT22;1107;48.654;9.250;2023-03-20T06:07:05;8.80;1.00
2202;DHT22;1107;48.654;9.250;2023-03-20T06:09:34;8.80;1.00
2202;DHT22;1107;48.654;9.250;2023-03-20T06:12:01;8.90;1.00
2202;DHT22;1107;48.654;9.250;2023-03-20T06:14:28;8.90;1.00
2202;DHT22;1107;48.654;9.250;2023-03-20T06:16:55;8.80;1.00
2202;DHT22;1107;48.654;9.250;2023-03-20T06:19:22;8.80;1.00
2202;DHT22;1107;48.654;9.250;2023-03-20T06:21:49;8.80;1.00
2202;DHT22;1107;48.654;9.250;2023-03-20T06:24:16;8.90;1.00
2202;DHT22;1107;48.654;9.250;2023-03-20T06:26:45;9.00;1.00
2202;DHT22;1107;48.654;9.250;2023-03-20T06:29:12;9.00;1.00
2202;DHT22;1107;48.654;9.250;2023-03-20T06:31:39;9.10;1.00
2202;DHT22;1107;48.654;9.250;2023-03-20T06:34:06;9.10;99.90
2202;DHT22;1107;48.654;9.250;2023-03-20T06:36:33;9.10;99.90
2202;DHT22;1107;48.654;9.250;2023-03-20T06:39:00;9.20;99.90
2202;DHT22;1107;48.654;9.250;2023-03-20T06:41:27;9.30;1.00
2202;DHT22;1107;48.654;9.250;2023-03-20T06:43:56;9.40;99.90
2202;DHT22;1107;48.654;9.250;2023-03-20T06:46:23;9.40;1.00
2202;DHT22;1107;48.654;9.250;2023-03-20T06:48:50;9.50;1.00
2202;DHT22;1107;48.654;9.250;2023-03-20T06:51:17;9.60;1.00
2202;DHT22;1107;48.654;9.250;2023-03-20T06:53:44;9.70;1.00
2202;DHT22;1107;48.654;9.250;2023-03-20T06:56:11;10.00;99.90
2202;DHT22;1107;48.654;9.250;2023-03-20T06:58:38;10.70;1.00
2202;DHT22;1107;48.654;9.250;2023-03-20T07:01:11;11.20;1.00
2202;DHT22;1107;48.654;9.250;2023-03-20T07:03:38;11.40;1.00
2202;DHT22;1107;48.654;9.250;2023-03-20T07:06:06;11.40;95.70
2202;DHT22;1107;48.654;9.250;2023-03-20T07:08:33;11.30;99.90
2202;DHT22;1107;48.654;9.250;2023-03-20T07:11:01;11.30;99.90
2202;DHT22;1107;48.654;9.250;2023-03-20T07:13:28;11.40;1.00
2202;DHT22;1107;48.654;9.250;2023-03-20T07:15:55;11.40;99.90
2202;DHT22;1107;48.654;9.250;2023-03-20T07:18:24;11.40;85.00
2202;DHT22;1107;48.654;9.250;2023-03-20T07:20:51;11.30;99.90
2202;DHT22;1107;48.654;9.250;2023-03-20T07:23:18;11.20;99.90
2202;DHT22;1107;48.654;9.250;2023-03-20T07:25:45;11.30;1.00
2202;DHT22;1107;48.654;9.250;2023-03-20T07:28:12;11.30;99.90
2202;DHT22;1107;48.654;9.250;2023-03-20T07:30:39;11.20;99.90
2202;DHT22;1107;48.654;9.250;2023-03-20T07:33:06;11.00;1.00
2202;DHT22;1107;48.654;9.250;2023-03-20T07:35:35;11.00;1.00
2202;DHT22;1107;48.654;9.250;2023-03-20T07:38:03;10.90;1.00
2202;DHT22;1107;48.654;9.250;2023-03-20T07:40:31;10.70;1.00
2202;DHT22;1107;48.654;9.250;2023-03-20T07:42:57;10.50;99.90
2202;DHT22;1107;48.654;9.250;2023-03-20T07:45:25;10.30;99.90
2202;DHT22;1107;48.654;9.250;2023-03-20T07:47:52;10.20;1.00
2202;DHT22;1107;48.654;9.250;2023-03-20T07:50:19;10.10;99.90
2202;DHT22;1107;48.654;9.250;2023-03-20T07:52:48;10.10;1.00
2202;DHT22;1107;48.654;9.250;2023-03-20T07:55:16;10.30;99.90
2202;DHT22;1107;48.654;9.250;2023-03-20T07:57:43;10.50;1.00
2202;DHT22;1107;48.654;9.250;2023-03-20T08:00:11;10.80;1.00
2202;DHT22;1107;48.654;9.250;2023-03-20T08:02:38;11.10;1.00
2202;DHT22;1107;48.654;9.250;2023-03-20T08:05:06;11.30;1.00
2202;DHT22;1107;48.654;9.250;2023-03-20T08:07:33;11.30;1.00
2202;DHT22;1107;48.654;9.250;2023-03-20T08:10:02;11.30;1.00
2202;DHT22;1107;48.654;9.250;2023-03-20T08:12:29;11.30;1.00
2202;DHT22;1107;48.654;9.250;2023-03-20T08:14:56;11.40;99.90
2202;DHT22;1107;48.654;9.250;2023-03-20T08:17:23;11.60;1.00
2202;DHT22;1107;48.654;9.250;2023-03-20T08:19:49;11.80;1.00
2202;DHT22;1107;48.654;9.250;2023-03-20T08:22:16;11.90;99.90
2202;DHT22;1107;48.654;9.250;2023-03-20T08:24:43;11.80;99.90
2202;DHT22;1107;48.654;9.250;2023-03-20T08:27:12;11.70;99.90
2202;DHT22;1107;48.654;9.250;2023-03-20T08:29:39;11.60;99.90
2202;DHT22;1107;48.654;9.250;2023-03-20T08:32:05;11.60;99.90
2202;DHT22;1107;48.654;9.250;2023-03-20T08:34:32;11.40;99.90
2202;DHT22;1107;48.654;9.250;2023-03-20T08:37:01;11.20;99.90
2202;DHT22;1107;48.654;9.250;2023-03-20T08:39:28;11.10;99.90
2202;DHT22;1107;48.654;9.250;2023-03-20T08:41:55;11.00;99.90
2202;DHT22;1107;48.654;9.250;2023-03-20T08:44:23;11.00;99.90
2202;DHT22;1107;48.654;9.250;2023-03-20T08:46:51;11.10;99.90
2202;DHT22;1107;48.654;9.250;2023-03-20T08:49:19;11.20;99.90
2202;DHT22;1107;48.654;9.250;2023-03-20T08:51:46;11.30;99.90
2202;DHT22;1107;48.654;9.250;2023-03-20T08:54:13;11.30;99.90
2202;DHT22;1107;48.654;9.250;2023-03-20T08:56:43;11.40;99.90
2202;DHT22;1107;48.654;9.250;2023-03-20T08:59:10;11.30;99.90
2202;DHT22;1107;48.654;9.250;2023-03-20T09:01:38;11.60;99.90
2202;DHT22;1107;48.654;9.250;2023-03-20T09:04:05;11.80;99.90
2202;DHT22;1107;48.654;9.250;2023-03-20T09:06:35;11.90;44.60
2202;DHT22;1107;48.654;9.250;2023-03-20T09:09:02;12.00;3.70
2202;DHT22;1107;48.654;9.250;2023-03-20T09:11:29;12.30;1.00
2202;DHT22;1107;48.654;9.250;2023-03-20T09:13:57;12.40;1.00
2202;DHT22;1107;48.654;9.250;2023-03-20T09:16:24;12.60;1.00
2202;DHT22;1107;48.654;9.250;2023-03-20T09:18:53;12.80;1.00
2202;DHT22;1107;48.654;9.250;2023-03-20T09:21:19;12.70;1.00
2202;DHT22;1107;48.654;9.250;2023-03-20T09:23:46;12.80;1.00
2202;DHT22;1107;48.654;9.250;2023-03-20T09:26:13;12.90;1.00
2202;DHT22;1107;48.654;9.250;2023-03-20T09:28:41;13.20;1.00
2202;DHT22;1107;48.654;9.250;2023-03-20T09:31:08;13.20;1.00
2202;DHT22;1107;48.654;9.250;2023-03-20T09:33:36;13.20;1.00
2202;DHT22;1107;48.654;9.250;2023-03-20T09:36:05;13.30;1.00
2202;DHT22;1107;48.654;9.250;2023-03-20T09:38:39;12.80;1.00
2202;DHT22;1107;48.654;9.250;2023-03-20T09:41:12;12.50;1.00
2202;DHT22;1107;48.654;9.250;2023-03-20T09:43:49;12.80;1.00
2202;DHT22;1107;48.654;9.250;2023-03-20T09:46:31;13.00;1.00
2202;DHT22;1107;48.654;9.250;2023-03-20T09:49:06;12.80;1.00
2202;DHT22;1107;48.654;9.250;2023-03-20T09:51:41;12.80;1.00
2202;DHT22;1107;48.654;9.250;2023-03-20T09:54:24;13.10;1.00
2202;DHT22;1107;48.654;9.250;2023-03-20T09:56:51;13.00;1.00
2202;DHT22;1107;48.654;9.250;2023-03-20T09:59:20;13.00;1.00
2202;DHT22;1107;48.654;9.250;2023-03-20T10:01:51;13.10;1.00
2202;DHT22;1107;48.654;9.250;2023-03-20T10:04:19;13.20;1.00
2202;DHT22;1107;48.654;9.250;2023-03-20T10:06:47;13.40;1.00
2202;DHT22;1107;48.654;9.250;2023-03-20T10:09:16;13.40;1.00
2202;DHT22;1107;48.654;9.250;2023-03-20T10:15:02;13.00;1.00
2202;DHT22;1107;48.654;9.250;2023-03-20T10:17:43;13.00;1.00
2202;DHT22;1107;48.654;9.250;2023-03-20T10:20:21;12.70;1.00
2202;DHT22;1107;48.654;9.250;2023-03-20T10:22:54;12.50;1.00
2202;DHT22;1107;48.654;9.250;2023-03-20T10:25:27;12.40;1.00
2202;DHT22;1107;48.654;9.250;2023-03-20T10:27:58;12.40;1.00
2202;DHT22;1107;48.654;9.250;2023-03-20T10:30:33;12.40;1.00
2202;DHT22;1107;48.654;9.250;2023-03-20T10:33:12;12.50;1.00
2202;DHT22;1107;48.654;9.250;2023-03-20T10:35:48;12.70;1.00
2202;DHT22;1107;48.654;9.250;2023-03-20T10:38:26;12.70;1.00
2202;DHT22;1107;48.654;9.250;2023-03-20T10:40:57;12.80;1.00
2202;DHT22;1107;48.654;9.250;2023-03-20T10:43:28;12.90;1.00
2202;DHT22;1107;48.654;9.250;2023-03-20T10:46:00;12.80;1.00
2202;DHT22;1107;48.654;9.250;2023-03-20T10:48:32;12.90;1.00
2202;DHT22;1107;48.654;9.250;2023-03-20T10:51:01;12.80;1.00
2202;DHT22;1107;48.654;9.250;2023-03-20T10:53:36;12.90;1.00
2202;DHT22;1107;48.654;9.250;2023-03-20T10:56:06;13.10;1.00
2202;DHT22;1107;48.654;9.250;2023-03-20T10:58:37;13.60;1.00
2202;DHT22;1107;48.654;9.250;2023-03-20T11:01:05;13.90;1.00
2202;DHT22;1107;48.654;9.250;2023-03-20T11:03:33;14.10;99.90
2202;DHT22;1107;48.654;9.250;2023-03-20T11:06:07;14.20;99.90
2202;DHT22;1107;48.654;9.250;2023-03-20T11:08:40;14.60;99.90
2202;DHT22;1107;48.654;9.250;2023-03-20T11:11:07;14.50;99.90
2202;DHT22;1107;48.654;9.250;2023-03-20T11:13:37;14.30;99.90
2202;DHT22;1107;48.654;9.250;2023-03-20T11:16:11;14.00;99.90
2202;DHT22;1107;48.654;9.250;2023-03-20T11:18:41;14.00;99.90
2202;DHT22;1107;48.654;9.250;2023-03-20T11:21:16;13.70;99.90
2202;DHT22;1107;48.654;9.250;2023-03-20T11:23:45;13.40;99.90
2202;DHT22;1107;48.654;9.250;2023-03-20T11:26:14;13.60;99.90
2202;DHT22;1107;48.654;9.250;2023-03-20T11:28:46;13.90;99.90
2202;DHT22;1107;48.654;9.250;2023-03-20T11:31:16;14.20;99.90
2202;DHT22;1107;48.654;9.250;2023-03-20T11:33:45;14.40;99.90
2202;DHT22;1107;48.654;9.250;2023-03-20T11:36:22;14.40;99.90
2202;DHT22;1107;48.654;9.250;2023-03-20T11:38:51;14.30;99.90
2202;DHT22;1107;48.654;9.250;2023-03-20T11:41:23;14.30;99.90
2202;DHT22;1107;48.654;9.250;2023-03-20T11:43:50;13.90;99.90
2202;DHT22;1107;48.654;9.250;2023-03-20T11:46:19;14.00;99.90
2202;DHT22;1107;48.654;9.250;2023-03-20T11:49:02;14.10;99.90
2202;DHT22;1107;48.654;9.250;2023-03-20T11:51:30;14.10;99.90
2202;DHT22;1107;48.654;9.250;2023-03-20T11:54:00;14.20;99.90
2202;DHT22;1107;48.654;9.250;2023-03-20T11:56:29;14.20;99.90
2202;DHT22;1107;48.654;9.250;2023-03-20T11:59:00;14.20;99.90
2202;DHT22;1107;48.654;9.250;2023-03-20T12:01:36;14.20;99.90
2202;DHT22;1107;48.654;9.250;2023-03-20T12:04:04;14.20;99.90
2202;DHT22;1107;48.654;9.250;2023-03-20T12:06:41;14.30;99.90
2202;DHT22;1107;48.654;9.250;2023-03-20T12:09:20;14.40;99.90
2202;DHT22;1107;48.654;9.250;2023-03-20T12:11:51;14.20;99.90
2202;DHT22;1107;48.654;9.250;2023-03-20T12:14:27;14.00;99.90
2202;DHT22;1107;48.654;9.250;2023-03-20T12:17:15;13.90;99.90
2202;DHT22;1107;48.654;9.250;2023-03-20T12:19:47;14.10;99.90
2202;DHT22;1107;48.654;9.250;2023-03-20T12:22:20;14.30;99.90
2202;DHT22;1107;48.654;9.250;2023-03-20T12:24:54;14.60;99.90
2202;DHT22;1107;48.654;9.250;2023-03-20T12:27:28;15.20;99.90
2202;DHT22;1107;48.654;9.250;2023-03-20T12:29:59;15.70;99.90
2202;DHT22;1107;48.654;9.250;2023-03-20T12:32:35;15.90;99.90
2202;DHT22;1107;48.654;9.250;2023-03-20T12:35:10;15.50;99.90
2202;DHT22;1107;48.654;9.250;2023-03-20T12:37:38;15.50;99.90
2202;DHT22;1107;48.654;9.250;2023-03-20T12:40:12;15.70;99.90
2202;DHT22;1107;48.654;9.250;2023-03-20T12:42:51;16.30;99.90
2202;DHT22;1107;48.654;9.250;2023-03-20T12:45:20;15.90;99.90
2202;DHT22;1107;48.654;9.250;2023-03-20T12:48:09;15.60;99.90
2202;DHT22;1107;48.654;9.250;2023-03-20T12:50:43;15.60;99.90
2202;DHT22;1107;48.654;9.250;2023-03-20T12:53:30;15.50;99.90
2202;DHT22;1107;48.654;9.250;2023-03-20T12:56:12;15.40;99.90
2202;DHT22;1107;48.654;9.250;2023-03-20T12:58:46;15.10;99.90
2202;DHT22;1107;48.654;9.250;2023-03-20T13:01:17;14.80;99.90
2202;DHT22;1107;48.654;9.250;2023-03-20T13:03:55;14.30;99.90
2202;DHT22;1107;48.654;9.250;2023-03-20T13:06:35;14.10;99.90
2202;DHT22;1107;48.654;9.250;2023-03-20T13:09:30;13.90;99.90
2202;DHT22;1107;48.654;9.250;2023-03-20T13:12:06;13.90;99.90
2202;DHT22;1107;48.654;9.250;2023-03-20T13:14:40;13.90;99.90
2202;DHT22;1107;48.654;9.250;2023-03-20T13:17:15;13.90;99.90
2202;DHT22;1107;48.654;9.250;2023-03-20T13:19:51;14.00;99.90
2202;DHT22;1107;48.654;9.250;2023-03-20T13:22:23;14.10;99.90
2202;DHT22;1107;48.654;9.250;2023-03-20T13:24:54;14.20;99.90
2202;DHT22;1107;48.654;9.250;2023-03-20T13:27:35;14.20;99.90
2202;DHT22;1107;48.654;9.250;2023-03-20T13:30:12;14.20;99.90
2202;DHT22;1107;48.654;9.250;2023-03-20T13:32:52;14.10;99.90
2202;DHT22;1107;48.654;9.250;2023-03-20T13:35:29;14.00;99.90
2202;DHT22;1107;48.654;9.250;2023-03-20T13:38:00;14.10;99.90
2202;DHT22;1107;48.654;9.250;2023-03-20T13:40:32;14.20;99.90
2202;DHT22;1107;48.654;9.250;2023-03-20T13:43:09;14.40;99.90
2202;DHT22;1107;48.654;9.250;2023-03-20T13:45:41;14.40;99.90
2202;DHT22;1107;48.654;9.250;2023-03-20T13:48:21;14.50;99.90
2202;DHT22;1107;48.654;9.250;2023-03-20T13:50:54;14.80;99.90
2202;DHT22;1107;48.654;9.250;2023-03-20T13:53:29;15.10;99.90
2202;DHT22;1107;48.654;9.250;2023-03-20T13:56:04;15.40;99.90
2202;DHT22;1107;48.654;9.250;2023-03-20T13:59:00;15.80;99.90
2202;DHT22;1107;48.654;9.250;2023-03-20T14:01:37;16.60;99.90
2202;DHT22;1107;48.654;9.250;2023-03-20T14:04:08;17.00;99.90
2202;DHT22;1107;48.654;9.250;2023-03-20T14:06:52;16.60;99.90
2202;DHT22;1107;48.654;9.250;2023-03-20T14:09:28;16.10;99.90
2202;DHT22;1107;48.654;9.250;2023-03-20T14:11:58;16.00;99.90
2202;DHT22;1107;48.654;9.250;2023-03-20T14:14:29;15.70;99.90
2202;DHT22;1107;48.654;9.250;2023-03-20T14:19:42;15.30;99.90
2202;DHT22;1107;48.654;9.250;2023-03-20T14:22:15;14.80;99.90
2202;DHT22;1107;48.654;9.250;2023-03-20T14:24:48;14.50;99.90
2202;DHT22;1107;48.654;9.250;2023-03-20T14:27:18;14.20;99.90
2202;DHT22;1107;48.654;9.250;2023-03-20T14:29:47;14.20;99.90
2202;DHT22;1107;48.654;9.250;2023-03-20T14:32:32;14.20;99.90
2202;DHT22;1107;48.654;9.250;2023-03-20T14:35:21;14.20;99.90
2202;DHT22;1107;48.654;9.250;2023-03-20T14:38:07;14.20;99.90
2202;DHT22;1107;48.654;9.250;2023-03-20T14:40:39;14.30;99.90
2202;DHT22;1107;48.654;9.250;2023-03-20T14:43:17;14.20;99.90
2202;DHT22;1107;48.654;9.250;2023-03-20T14:45:52;14.20;99.90
2202;DHT22;1107;48.654;9.250;2023-03-20T14:48:27;14.10;99.90
2202;DHT22;1107;48.654;9.250;2023-03-20T14:51:13;14.00;99.90
2202;DHT22;1107;48.654;9.250;2023-03-20T14:53:41;13.90;99.90
2202;DHT22;1107;48.654;9.250;2023-03-20T14:56:10;14.00;99.90
2202;DHT22;1107;48.654;9.250;2023-03-20T14:58:50;14.00;99.90
2202;DHT22;1107;48.654;9.250;2023-03-20T15:01:26;14.00;99.90
2202;DHT22;1107;48.654;9.250;2023-03-20T15:03:56;14.00;99.90
2202;DHT22;1107;48.654;9.250;2023-03-20T15:06:26;13.90;99.90
2202;DHT22;1107;48.654;9.250;2023-03-20T15:08:56;13.90;99.90
2202;DHT22;1107;48.654;9.250;2023-03-20T15:11:25;13.80;99.90
2202;DHT22;1107;48.654;9.250;2023-03-20T15:13:53;13.70;99.90
2202;DHT22;1107;48.654;9.250;2023-03-20T15:16:27;13.60;99.90
2202;DHT22;1107;48.654;9.250;2023-03-20T15:18:54;13.50;99.90
2202;DHT22;1107;48.654;9.250;2023-03-20T15:21:28;13.40;99.90
2202;DHT22;1107;48.654;9.250;2023-03-20T15:23:56;13.40;99.90
2202;DHT22;1107;48.654;9.250;2023-03-20T15:26:24;13.40;99.90
2202;DHT22;1107;48.654;9.250;2023-03-20T15:28:58;13.50;99.90
2202;DHT22;1107;48.654;9.250;2023-03-20T15:31:29;13.50;99.90
2202;DHT22;1107;48.654;9.250;2023-03-20T15:33:58;13.60;99.90
2202;DHT22;1107;48.654;9.250;2023-03-20T15:36:27;13.60;99.90
2202;DHT22;1107;48.654;9.250;2023-03-20T15:39:04;13.70;99.90
2202;DHT22;1107;48.654;9.250;2023-03-20T15:41:33;13.60;99.90
2202;DHT22;1107;48.654;9.250;2023-03-20T15:44:15;13.60;99.90
2202;DHT22;1107;48.654;9.250;2023-03-20T15:46:53;13.50;99.90
2202;DHT22;1107;48.654;9.250;2023-03-20T15:49:21;13.30;99.90
2202;DHT22;1107;48.654;9.250;2023-03-20T15:51:50;13.30;99.90
2202;DHT22;1107;48.654;9.250;2023-03-20T15:54:18;13.30;99.90
2202;DHT22;1107;48.654;9.250;2023-03-20T15:56:49;13.40;99.90
2202;DHT22;1107;48.654;9.250;2023-03-20T15:59:18;13.30;99.90
2202;DHT22;1107;48.654;9.250;2023-03-20T16:01:51;13.30;99.90
2202;DHT22;1107;48.654;9.250;2023-03-20T16:04:19;13.10;99.90
2202;DHT22;1107;48.654;9.250;2023-03-20T16:06:48;13.10;99.90
2202;DHT22;1107;48.654;9.250;2023-03-20T16:09:17;13.10;99.90
2202;DHT22;1107;48.654;9.250;2023-03-20T16:11:45;13.00;99.90
2202;DHT22;1107;48.654;9.250;2023-03-20T16:14:19;12.90;99.90
2202;DHT22;1107;48.654;9.250;2023-03-20T16:16:50;12.80;99.90
2202;DHT22;1107;48.654;9.250;2023-03-20T16:19:18;12.80;99.90
2202;DHT22;1107;48.654;9.250;2023-03-20T16:21:48;12.80;99.90
2202;DHT22;1107;48.654;9.250;2023-03-20T16:24:19;12.80;99.90
2202;DHT22;1107;48.654;9.250;2023-03-20T16:26:49;12.80;99.90
2202;DHT22;1107;48.654;9.250;2023-03-20T16:29:17;12.80;99.90
2202;DHT22;1107;48.654;9.250;2023-03-20T16:31:53;12.80;99.90
2202;DHT22;1107;48.654;9.250;2023-03-20T16:34:23;12.70;99.90
2202;DHT22;1107;48.654;9.250;2023-03-20T16:36:53;12.70;99.90
2202;DHT22;1107;48.654;9.250;2023-03-20T16:39:23;12.80;99.90
2202;DHT22;1107;48.654;9.250;2023-03-20T16:42:17;12.70;99.90
2202;DHT22;1107;48.654;9.250;2023-03-20T16:44:52;12.70;99.90
2202;DHT22;1107;48.654;9.250;2023-03-20T16:47:23;12.60;99.90
2202;DHT22;1107;48.654;9.250;2023-03-20T16:50:08;12.60;99.90
2202;DHT22;1107;48.654;9.250;2023-03-20T16:52:37;12.60;99.90
2202;DHT22;1107;48.654;9.250;2023-03-20T16:55:12;12.60;99.90